sensor_id;sensor_type;location;lat;lon;timestamp;pressure;altitude;pressure_sealevel;temperature;humidity
31911;BME280;18457;52.432;16.914;2023-03-03T00:00:47;101046.48;;;0.71;100.00
31911;BME280;18457;52.432;16.914;2023-03-03T00:03:23;101045.23;;;0.64;100.00
31911;BME280;18457;52.432;16.914;2023-03-03T00:05:57;101045.98;;;0.66;100.00
31911;BME280;18457;52.432;16.914;2023-03-03T00:08:29;101045.63;;;0.80;100.00
31911;BME280;18457;52.432;16.914;2023-03-03T00:11:02;101048.11;;;0.79;100.00
31911;BME280;18457;52.432;16.914;2023-03-03T00:13:43;101044.30;;;0.77;100.00
31911;BME280;18457;52.432;16.914;2023-03-03T00:16:20;101040.92;;;0.77;100.00
31911;BME280;18457;52.432;16.914;2023-03-03T00:18:54;101041.56;;;0.67;100.00
31911;BME280;18457;52.432;16.914;2023-03-03T00:21:28;101046.54;;;0.61;100.00
31911;BME280;18457;52.432;16.914;2023-03-03T00:24:18;101038.31;;;0.72;100.00
31911;BME280;18457;52.432;16.914;2023-03-03T00:26:51;101035.13;;;0.66;100.00
31911;BME280;18457;52.432;16.914;2023-03-03T00:29:28;101033.59;;;0.68;100.00
31911;BME280;18457;52.432;16.914;2023-03-03T00:32:17;101032.63;;;0.65;100.00
31911;BME280;18457;52.432;16.914;2023-03-03T00:34:53;101032.42;;;0.71;100.00
31911;BME280;18457;52.432;16.914;2023-03-03T00:37:29;101030.84;;;0.52;100.00
31911;BME280;18457;52.432;16.914;2023-03-03T00:40:20;101029.33;;;0.48;100.00
31911;BME280;18457;52.432;16.914;2023-03-03T00:42:55;101027.85;;;0.46;100.00
31911;BME280;18457;52.432;16.914;2023-03-03T00:45:31;101027.36;;;0.48;100.00
31911;BME280;18457;52.432;16.914;2023-03-03T00:48:20;101032.69;;;0.47;100.00
31911;BME280;18457;52.432;16.914;2023-03-03T00:50:54;101032.65;;;0.52;100.00
31911;BME280;18457;52.432;16.914;2023-03-03T00:53:28;101034.23;;;0.59;100.00
31911;BME280;18457;52.432;16.914;2023-03-03T00:56:00;101035.33;;;0.53;100.00
31911;BME280;18457;52.432;16.914;2023-03-03T00:58:32;101027.55;;;0.61;100.00
31911;BME280;18457;52.432;16.914;2023-03-03T01:01:05;101020.92;;;0.60;100.00
31911;BME280;18457;52.432;16.914;2023-03-03T01:03:43;101018.79;;;0.66;100.00
31911;BME280;18457;52.432;16.914;2023-03-03T01:06:15;101013.79;;;0.65;100.00
31911;BME280;18457;52.432;16.914;2023-03-03T01:08:47;101013.81;;;0.67;100.00
31911;BME280;18457;52.432;16.914;2023-03-03T01:11:22;101015.95;;;0.60;100.00
31911;BME280;18457;52.432;16.914;2023-03-03T01:13:55;101020.94;;;0.53;100.00
31911;BME280;18457;52.432;16.914;2023-03-03T01:16:29;101018.08;;;0.53;100.00
31911;BME280;18457;52.432;16.914;2023-03-03T01:19:01;101009.08;;;0.62;100.00
31911;BME280;18457;52.432;16.914;2023-03-03T01:21:33;101009.33;;;0.58;100.00
31911;BME280;18457;52.432;16.914;2023-03-03T01:24:06;101002.56;;;0.51;100.00
31911;BME280;18457;52.432;16.914;2023-03-03T01:26:38;101003.88;;;0.47;100.00
31911;BME280;18457;52.432;16.914;2023-03-03T01:29:10;101002.84;;;0.54;100.00
31911;BME280;18457;52.432;16.914;2023-03-03T01:31:42;101004.60;;;0.54;100.00
31911;BME280;18457;52.432;16.914;2023-03-03T01:34:14;100997.11;;;0.53;100.00
31911;BME280;18457;52.432;16.914;2023-03-03T01:36:46;100998.20;;;0.47;100.00
31911;BME280;18457;52.432;16.914;2023-03-03T01:39:17;100997.63;;;0.45;100.00
31911;BME280;18457;52.432;16.914;2023-03-03T01:41:49;100991.89;;;0.43;100.00
31911;BME280;18457;52.432;16.914;2023-03-03T01:44:21;100988.63;;;0.41;100.00
31911;BME280;18457;52.432;16.914;2023-03-03T01:46:55;100980.03;;;0.38;100.00
31911;BME280;18457;52.432;16.914;2023-03-03T01:49:33;100978.55;;;0.43;100.00
31911;BME280;18457;52.432;16.914;2023-03-03T01:52:12;100977.14;;;0.37;100.00
31911;BME280;18457;52.432;16.914;2023-03-03T01:54:49;100973.58;;;0.29;100.00
31911;BME280;18457;52.432;16.914;2023-03-03T01:57:26;100971.09;;;0.37;100.00
31911;BME280;18457;52.432;16.914;2023-03-03T02:00:00;100968.64;;;0.31;100.00
31911;BME280;18457;52.432;16.914;2023-03-03T02:02:43;100972.02;;;0.24;100.00
31911;BME280;18457;52.432;16.914;2023-03-03T02:05:16;100978.61;;;0.26;100.00
31911;BME280;18457;52.432;16.914;2023-03-03T02:07:47;100982.46;;;0.23;100.00
31911;BME280;18457;52.432;16.914;2023-03-03T02:10:20;100978.42;;;0.32;100.00
31911;BME280;18457;52.432;16.914;2023-03-03T02:12:55;100973.85;;;0.47;100.00
31911;BME280;18457;52.432;16.914;2023-03-03T02:15:29;100983.83;;;0.41;100.00
31911;BME280;18457;52.432;16.914;2023-03-03T02:18:05;100988.80;;;0.27;100.00
31911;BME280;18457;52.432;16.914;2023-03-03T02:20:45;100999.56;;;0.25;100.00
31911;BME280;18457;52.432;16.914;2023-03-03T02:23:25;101007.01;;;0.17;100.00
31911;BME280;18457;52.432;16.914;2023-03-03T02:26:06;101006.16;;;0.13;100.00
31911;BME280;18457;52.432;16.914;2023-03-03T02:28:39;101005.54;;;0.10;100.00
31911;BME280;18457;52.432;16.914;2023-03-03T02:31:13;100990.36;;;0.07;100.00
31911;BME280;18457;52.432;16.914;2023-03-03T02:33:48;100986.91;;;0.04;100.00
31911;BME280;18457;52.432;16.914;2023-03-03T02:36:22;100990.19;;;0.13;100.00
31911;BME280;18457;52.432;16.914;2023-03-03T02:39:00;100989.77;;;0.17;100.00
31911;BME280;18457;52.432;16.914;2023-03-03T02:41:37;100986.65;;;0.21;100.00
31911;BME280;18457;52.432;16.914;2023-03-03T02:44:12;100993.53;;;0.26;100.00
31911;BME280;18457;52.432;16.914;2023-03-03T02:46:47;101011.86;;;0.33;100.00
31911;BME280;18457;52.432;16.914;2023-03-03T02:49:20;101009.09;;;0.29;100.00
31911;BME280;18457;52.432;16.914;2023-03-03T02:51:54;101007.65;;;0.28;100.00
31911;BME280;18457;52.432;16.914;2023-03-03T02:54:28;101006.22;;;0.28;100.00
31911;BME280;18457;52.432;16.914;2023-03-03T02:57:01;101004.94;;;0.33;100.00
31911;BME280;18457;52.432;16.914;2023-03-03T02:59:33;101002.36;;;0.44;100.00
31911;BME280;18457;52.432;16.914;2023-03-03T03:02:11;100990.92;;;0.40;100.00
31911;BME280;18457;52.432;16.914;2023-03-03T03:04:42;100990.10;;;0.37;100.00
31911;BME280;18457;52.432;16.914;2023-03-03T03:07:19;100997.87;;;0.41;100.00
31911;BME280;18457;52.432;16.914;2023-03-03T03:09:52;101002.35;;;0.36;100.00
31911;BME280;18457;52.432;16.914;2023-03-03T03:12:24;100999.32;;;0.36;100.00
31911;BME280;18457;52.432;16.914;2023-03-03T03:14:56;101000.95;;;0.43;100.00
31911;BME280;18457;52.432;16.914;2023-03-03T03:17:28;101001.73;;;0.32;100.00
31911;BME280;18457;52.432;16.914;2023-03-03T03:20:01;100995.55;;;0.21;100.00
31911;BME280;18457;52.432;16.914;2023-03-03T03:22:35;100991.21;;;0.19;100.00
31911;BME280;18457;52.432;16.914;2023-03-03T03:25:08;100991.48;;;0.22;100.00
31911;BME280;18457;52.432;16.914;2023-03-03T03:27:40;100983.11;;;0.14;100.00
31911;BME280;18457;52.432;16.914;2023-03-03T03:30:13;100981.38;;;0.10;100.00
31911;BME280;18457;52.432;16.914;2023-03-03T03:32:46;100985.55;;;0.19;100.00
31911;BME280;18457;52.432;16.914;2023-03-03T03:35:18;100977.02;;;0.12;100.00
31911;BME280;18457;52.432;16.914;2023-03-03T03:37:50;100981.77;;;0.11;100.00
31911;BME280;18457;52.432;16.914;2023-03-03T03:40:22;100977.27;;;0.09;100.00
31911;BME280;18457;52.432;16.914;2023-03-03T03:42:56;100985.52;;;0.05;100.00
31911;BME280;18457;52.432;16.914;2023-03-03T03:45:28;100984.85;;;0.06;100.00
31911;BME280;18457;52.432;16.914;2023-03-03T03:48:00;100978.90;;;0.10;100.00
31911;BME280;18457;52.432;16.914;2023-03-03T03:50:33;100980.39;;;-0.00;100.00
31911;BME280;18457;52.432;16.914;2023-03-03T03:53:05;100974.27;;;-0.04;100.00
31911;BME280;18457;52.432;16.914;2023-03-03T03:55:37;100970.20;;;-0.03;100.00
31911;BME280;18457;52.432;16.914;2023-03-03T03:58:12;100968.34;;;0.00;100.00
31911;BME280;18457;52.432;16.914;2023-03-03T04:00:45;100971.35;;;-0.06;100.00
31911;BME280;18457;52.432;16.914;2023-03-03T04:03:16;100970.67;;;0.02;100.00
31911;BME280;18457;52.432;16.914;2023-03-03T04:05:50;100972.81;;;0.02;100.00
31911;BME280;18457;52.432;16.914;2023-03-03T04:08:23;100965.81;;;0.12;100.00
31911;BME280;18457;52.432;16.914;2023-03-03T04:10:56;100966.28;;;0.16;100.00
31911;BME280;18457;52.432;16.914;2023-03-03T04:13:29;100960.54;;;0.14;100.00
31911;BME280;18457;52.432;16.914;2023-03-03T04:16:02;100963.65;;;0.04;100.00
31911;BME280;18457;52.432;16.914;2023-03-03T04:18:34;100956.98;;;0.01;100.00
31911;BME280;18457;52.432;16.914;2023-03-03T04:21:09;100957.12;;;-0.01;100.00
31911;BME280;18457;52.432;16.914;2023-03-03T04:23:41;100960.26;;;-0.03;100.00
31911;BME280;18457;52.432;16.914;2023-03-03T04:26:14;100952.13;;;-0.02;100.00
31911;BME280;18457;52.432;16.914;2023-03-03T04:28:46;100948.42;;;-0.01;100.00
31911;BME280;18457;52.432;16.914;2023-03-03T04:31:19;100940.80;;;-0.01;100.00
31911;BME280;18457;52.432;16.914;2023-03-03T04:33:51;100946.44;;;-0.09;100.00
31911;BME280;18457;52.432;16.914;2023-03-03T04:36:24;100943.45;;;-0.20;100.00
31911;BME280;18457;52.432;16.914;2023-03-03T04:38:56;100939.25;;;-0.18;100.00
31911;BME280;18457;52.432;16.914;2023-03-03T04:41:29;100934.95;;;-0.13;100.00
31911;BME280;18457;52.432;16.914;2023-03-03T04:44:01;100937.58;;;-0.08;100.00
31911;BME280;18457;52.432;16.914;2023-03-03T04:46:33;100939.81;;;-0.04;100.00
31911;BME280;18457;52.432;16.914;2023-03-03T04:49:07;100939.61;;;0.02;100.00
31911;BME280;18457;52.432;16.914;2023-03-03T04:51:42;100932.43;;;0.06;100.00
31911;BME280;18457;52.432;16.914;2023-03-03T04:54:13;100935.94;;;-0.09;100.00
31911;BME280;18457;52.432;16.914;2023-03-03T04:56:48;100936.40;;;-0.06;100.00
31911;BME280;18457;52.432;16.914;2023-03-03T04:59:21;100944.95;;;-0.04;100.00
31911;BME280;18457;52.432;16.914;2023-03-03T05:01:53;100942.98;;;0.08;100.00
31911;BME280;18457;52.432;16.914;2023-03-03T05:04:25;100943.18;;;0.16;100.00
31911;BME280;18457;52.432;16.914;2023-03-03T05:06:57;100945.27;;;0.15;100.00
31911;BME280;18457;52.432;16.914;2023-03-03T05:09:29;100946.17;;;0.15;100.00
31911;BME280;18457;52.432;16.914;2023-03-03T05:12:02;100947.42;;;0.22;100.00
31911;BME280;18457;52.432;16.914;2023-03-03T05:14:34;100938.60;;;0.24;100.00
31911;BME280;18457;52.432;16.914;2023-03-03T05:17:06;100942.52;;;0.18;100.00
31911;BME280;18457;52.432;16.914;2023-03-03T05:19:38;100944.75;;;0.14;99.97
31911;BME280;18457;52.432;16.914;2023-03-03T05:22:10;100931.36;;;0.18;100.00
31911;BME280;18457;52.432;16.914;2023-03-03T05:24:43;100927.07;;;0.25;99.96
31911;BME280;18457;52.432;16.914;2023-03-03T05:27:19;100932.83;;;0.07;100.00
31911;BME280;18457;52.432;16.914;2023-03-03T05:29:51;100942.80;;;0.02;100.00
31911;BME280;18457;52.432;16.914;2023-03-03T05:32:23;100940.65;;;0.01;100.00
31911;BME280;18457;52.432;16.914;2023-03-03T05:34:55;100948.12;;;0.08;100.00
31911;BME280;18457;52.432;16.914;2023-03-03T05:37:30;100951.63;;;0.13;100.00
31911;BME280;18457;52.432;16.914;2023-03-03T05:40:03;100946.06;;;0.17;100.00
31911;BME280;18457;52.432;16.914;2023-03-03T05:42:35;100950.67;;;0.10;100.00
31911;BME280;18457;52.432;16.914;2023-03-03T05:45:09;100957.02;;;-0.05;100.00
31911;BME280;18457;52.432;16.914;2023-03-03T05:47:41;100964.46;;;-0.05;100.00
31911;BME280;18457;52.432;16.914;2023-03-03T05:50:14;100973.14;;;-0.00;100.00
31911;BME280;18457;52.432;16.914;2023-03-03T05:52:48;100983.10;;;0.01;100.00
31911;BME280;18457;52.432;16.914;2023-03-03T05:55:20;100984.19;;;-0.05;100.00
31911;BME280;18457;52.432;16.914;2023-03-03T05:57:53;100994.80;;;-0.13;100.00
31911;BME280;18457;52.432;16.914;2023-03-03T06:00:25;101005.16;;;-0.22;100.00
31911;BME280;18457;52.432;16.914;2023-03-03T06:02:58;101007.29;;;-0.16;100.00
31911;BME280;18457;52.432;16.914;2023-03-03T06:05:30;101002.79;;;-0.13;100.00
31911;BME280;18457;52.432;16.914;2023-03-03T06:08:02;100983.97;;;-0.12;100.00
31911;BME280;18457;52.432;16.914;2023-03-03T06:10:34;100968.39;;;-0.11;100.00
31911;BME280;18457;52.432;16.914;2023-03-03T06:13:06;100966.38;;;-0.07;100.00
31911;BME280;18457;52.432;16.914;2023-03-03T06:15:39;100956.44;;;-0.07;100.00
31911;BME280;18457;52.432;16.914;2023-03-03T06:18:13;100966.08;;;-0.11;100.00
31911;BME280;18457;52.432;16.914;2023-03-03T06:20:51;100973.06;;;-0.02;100.00
31911;BME280;18457;52.432;16.914;2023-03-03T06:23:35;100970.16;;;0.02;100.00
31911;BME280;18457;52.432;16.914;2023-03-03T06:26:09;100971.52;;;-0.01;100.00
31911;BME280;18457;52.432;16.914;2023-03-03T06:28:43;100974.58;;;-0.05;100.00
31911;BME280;18457;52.432;16.914;2023-03-03T06:31:15;100977.17;;;-0.02;100.00
31911;BME280;18457;52.432;16.914;2023-03-03T06:33:50;100988.19;;;-0.14;100.00
31911;BME280;18457;52.432;16.914;2023-03-03T06:36:24;100990.66;;;-0.14;100.00
31911;BME280;18457;52.432;16.914;2023-03-03T06:38:56;100988.94;;;-0.06;100.00
31911;BME280;18457;52.432;16.914;2023-03-03T06:41:28;100995.62;;;-0.02;100.00
31911;BME280;18457;52.432;16.914;2023-03-03T06:44:00;100993.95;;;-0.04;100.00
31911;BME280;18457;52.432;16.914;2023-03-03T06:46:32;100994.89;;;-0.09;100.00
31911;BME280;18457;52.432;16.914;2023-03-03T06:49:04;100993.57;;;-0.06;100.00
31911;BME280;18457;52.432;16.914;2023-03-03T06:51:38;100993.52;;;-0.07;100.00
31911;BME280;18457;52.432;16.914;2023-03-03T06:54:12;100992.99;;;-0.13;100.00
31911;BME280;18457;52.432;16.914;2023-03-03T06:56:46;100987.17;;;-0.18;100.00
31911;BME280;18457;52.432;16.914;2023-03-03T06:59:20;100994.86;;;-0.16;100.00
31911;BME280;18457;52.432;16.914;2023-03-03T07:01:52;100995.47;;;-0.20;100.00
31911;BME280;18457;52.432;16.914;2023-03-03T07:04:28;100991.89;;;-0.21;100.00
31911;BME280;18457;52.432;16.914;2023-03-03T07:07:10;100997.01;;;-0.28;100.00
31911;BME280;18457;52.432;16.914;2023-03-03T07:09:46;100994.46;;;-0.36;100.00
31911;BME280;18457;52.432;16.914;2023-03-03T07:12:19;100991.72;;;-0.33;100.00
31911;BME280;18457;52.432;16.914;2023-03-03T07:14:57;100991.98;;;-0.30;100.00
31911;BME280;18457;52.432;16.914;2023-03-03T07:17:32;100986.38;;;-0.21;100.00
31911;BME280;18457;52.432;16.914;2023-03-03T07:20:16;100994.98;;;-0.18;100.00
31911;BME280;18457;52.432;16.914;2023-03-03T07:22:49;101000.45;;;-0.01;100.00
31911;BME280;18457;52.432;16.914;2023-03-03T07:25:21;101005.29;;;0.01;100.00
31911;BME280;18457;52.432;16.914;2023-03-03T07:27:59;101006.52;;;0.14;100.00
31911;BME280;18457;52.432;16.914;2023-03-03T07:30:31;101008.79;;;0.18;100.00
31911;BME280;18457;52.432;16.914;2023-03-03T07:33:07;101012.73;;;0.07;100.00
31911;BME280;18457;52.432;16.914;2023-03-03T07:35:47;101002.54;;;0.10;100.00
31911;BME280;18457;52.432;16.914;2023-03-03T07:38:24;101009.79;;;0.16;100.00
31911;BME280;18457;52.432;16.914;2023-03-03T07:41:02;101019.84;;;0.19;100.00
31911;BME280;18457;52.432;16.914;2023-03-03T07:43:38;101022.09;;;0.17;100.00
31911;BME280;18457;52.432;16.914;2023-03-03T07:46:28;101028.33;;;0.18;100.00
31911;BME280;18457;52.432;16.914;2023-03-03T07:49:01;101032.85;;;0.15;100.00
31911;BME280;18457;52.432;16.914;2023-03-03T07:51:43;101028.70;;;0.13;100.00
31911;BME280;18457;52.432;16.914;2023-03-03T07:54:31;101027.92;;;0.22;100.00
31911;BME280;18457;52.432;16.914;2023-03-03T07:57:20;101026.30;;;0.16;100.00
31911;BME280;18457;52.432;16.914;2023-03-03T07:59:58;101031.13;;;0.10;100.00
31911;BME280;18457;52.432;16.914;2023-03-03T08:02:44;101030.64;;;0.18;100.00
31911;BME280;18457;52.432;16.914;2023-03-03T08:05:32;101036.77;;;0.15;100.00
31911;BME280;18457;52.432;16.914;2023-03-03T08:08:18;101028.70;;;-0.00;100.00
31911;BME280;18457;52.432;16.914;2023-03-03T08:10:53;101034.82;;;0.09;100.00
31911;BME280;18457;52.432;16.914;2023-03-03T08:13:34;101034.58;;;0.00;100.00
31911;BME280;18457;52.432;16.914;2023-03-03T08:16:27;101035.88;;;0.03;100.00
31911;BME280;18457;52.432;16.914;2023-03-03T08:19:02;101039.39;;;0.01;100.00
31911;BME280;18457;52.432;16.914;2023-03-03T08:21:36;101022.73;;;0.02;100.00
31911;BME280;18457;52.432;16.914;2023-03-03T08:24:08;101034.23;;;0.00;100.00
31911;BME280;18457;52.432;16.914;2023-03-03T08:26:40;101042.55;;;0.06;100.00
31911;BME280;18457;52.432;16.914;2023-03-03T08:29:11;101043.59;;;0.11;100.00
31911;BME280;18457;52.432;16.914;2023-03-03T08:31:44;101046.52;;;0.27;100.00
31911;BME280;18457;52.432;16.914;2023-03-03T08:34:16;101050.77;;;0.26;100.00
31911;BME280;18457;52.432;16.914;2023-03-03T08:36:48;101050.66;;;0.22;100.00
31911;BME280;18457;52.432;16.914;2023-03-03T08:39:20;101047.98;;;0.22;100.00
31911;BME280;18457;52.432;16.914;2023-03-03T08:41:52;101043.13;;;0.20;100.00
31911;BME280;18457;52.432;16.914;2023-03-03T08:44:24;101047.27;;;0.28;100.00
31911;BME280;18457;52.432;16.914;2023-03-03T08:46:56;101043.50;;;0.34;100.00
31911;BME280;18457;52.432;16.914;2023-03-03T08:49:28;101045.77;;;0.38;100.00
31911;BME280;18457;52.432;16.914;2023-03-03T08:52:20;101037.36;;;0.43;100.00
31911;BME280;18457;52.432;16.914;2023-03-03T08:54:52;101033.59;;;0.48;100.00
31911;BME280;18457;52.432;16.914;2023-03-03T08:57:24;101030.88;;;0.46;100.00
31911;BME280;18457;52.432;16.914;2023-03-03T08:59:56;101023.08;;;0.40;100.00
31911;BME280;18457;52.432;16.914;2023-03-03T09:02:28;101022.84;;;0.45;100.00
31911;BME280;18457;52.432;16.914;2023-03-03T09:05:01;101023.70;;;0.44;100.00
31911;BME280;18457;52.432;16.914;2023-03-03T09:07:33;101025.90;;;0.53;100.00
31911;BME280;18457;52.432;16.914;2023-03-03T09:10:07;101017.83;;;0.57;100.00
31911;BME280;18457;52.432;16.914;2023-03-03T09:12:41;101027.48;;;0.59;100.00
31911;BME280;18457;52.432;16.914;2023-03-03T09:15:21;101032.95;;;0.64;100.00
31911;BME280;18457;52.432;16.914;2023-03-03T09:17:53;101040.30;;;0.67;100.00
31911;BME280;18457;52.432;16.914;2023-03-03T09:20:35;101041.30;;;0.64;100.00
31911;BME280;18457;52.432;16.914;2023-03-03T09:23:31;101037.95;;;0.65;100.00
31911;BME280;18457;52.432;16.914;2023-03-03T09:26:44;101039.36;;;0.64;100.00
31911;BME280;18457;52.432;16.914;2023-03-03T09:29:25;101040.35;;;0.55;100.00
31911;BME280;18457;52.432;16.914;2023-03-03T09:31:59;101037.19;;;0.63;100.00
31911;BME280;18457;52.432;16.914;2023-03-03T09:34:38;101033.04;;;0.61;100.00
31911;BME280;18457;52.432;16.914;2023-03-03T09:37:22;101040.57;;;0.63;100.00
31911;BME280;18457;52.432;16.914;2023-03-03T09:39:55;101036.68;;;0.64;100.00
31911;BME280;18457;52.432;16.914;2023-03-03T09:42:42;101036.52;;;0.59;100.00
31911;BME280;18457;52.432;16.914;2023-03-03T09:45:33;101038.26;;;0.70;100.00
31911;BME280;18457;52.432;16.914;2023-03-03T09:48:28;101040.58;;;0.77;100.00
31911;BME280;18457;52.432;16.914;2023-03-03T09:51:14;101031.96;;;0.81;100.00
31911;BME280;18457;52.432;16.914;2023-03-03T09:54:01;101031.40;;;0.94;100.00
31911;BME280;18457;52.432;16.914;2023-03-03T09:56:40;101026.41;;;1.01;100.00
31911;BME280;18457;52.432;16.914;2023-03-03T09:59:25;101026.81;;;1.03;100.00
31911;BME280;18457;52.432;16.914;2023-03-03T10:02:15;101026.27;;;1.03;100.00
31911;BME280;18457;52.432;16.914;2023-03-03T10:05:04;101028.05;;;1.11;100.00
31911;BME280;18457;52.432;16.914;2023-03-03T10:07:53;101026.15;;;1.13;100.00
31911;BME280;18457;52.432;16.914;2023-03-03T10:10:39;101030.17;;;1.09;100.00
31911;BME280;18457;52.432;16.914;2023-03-03T10:13:24;101027.34;;;1.10;100.00
31911;BME280;18457;52.432;16.914;2023-03-03T10:16:11;101027.58;;;1.13;100.00
31911;BME280;18457;52.432;16.914;2023-03-03T10:18:54;101028.56;;;1.10;100.00
31911;BME280;18457;52.432;16.914;2023-03-03T10:21:31;101025.10;;;1.13;100.00
31911;BME280;18457;52.432;16.914;2023-03-03T10:24:17;101030.14;;;1.16;100.00
31911;BME280;18457;52.432;16.914;2023-03-03T10:27:00;101030.29;;;1.14;100.00
31911;BME280;18457;52.432;16.914;2023-03-03T10:29:53;101025.28;;;1.21;100.00
31911;BME280;18457;52.432;16.914;2023-03-03T10:32:41;101026.71;;;1.21;100.00
31911;BME280;18457;52.432;16.914;2023-03-03T10:38:48;101033.27;;;1.19;100.00
31911;BME280;18457;52.432;16.914;2023-03-03T10:41:38;101030.95;;;1.27;100.00
31911;BME280;18457;52.432;16.914;2023-03-03T10:44:26;101034.40;;;1.30;100.00
31911;BME280;18457;52.432;16.914;2023-03-03T10:47:20;101029.89;;;1.27;100.00
31911;BME280;18457;52.432;16.914;2023-03-03T10:50:05;101029.21;;;1.29;100.00
31911;BME280;18457;52.432;16.914;2023-03-03T10:52:46;101026.65;;;1.33;100.00
31911;BME280;18457;52.432;16.914;2023-03-03T10:55:28;101031.29;;;1.27;100.00
31911;BME280;18457;52.432;16.914;2023-03-03T10:58:18;101030.02;;;1.25;100.00
31911;BME280;18457;52.432;16.914;2023-03-03T11:01:00;101022.11;;;1.30;100.00
31911;BME280;18457;52.432;16.914;2023-03-03T11:03:47;101016.27;;;1.31;100.00
31911;BME280;18457;52.432;16.914;2023-03-03T11:06:28;101014.73;;;1.34;100.00
31911;BME280;18457;52.432;16.914;2023-03-03T11:09:09;101008.64;;;1.40;100.00
31911;BME280;18457;52.432;16.914;2023-03-03T11:11:50;101009.79;;;1.43;99.53
31911;BME280;18457;52.432;16.914;2023-03-03T11:14:31;101001.88;;;1.40;99.63
31911;BME280;18457;52.432;16.914;2023-03-03T11:17:11;100999.27;;;1.43;99.86
31911;BME280;18457;52.432;16.914;2023-03-03T11:19:58;100994.31;;;1.36;99.98
31911;BME280;18457;52.432;16.914;2023-03-03T11:22:36;100992.40;;;1.38;100.00
31911;BME280;18457;52.432;16.914;2023-03-03T11:25:24;100987.95;;;1.38;100.00
31911;BME280;18457;52.432;16.914;2023-03-03T11:28:10;100983.48;;;1.45;100.00
31911;BME280;18457;52.432;16.914;2023-03-03T11:30:59;100980.39;;;1.42;100.00
31911;BME280;18457;52.432;16.914;2023-03-03T11:33:41;100979.60;;;1.47;100.00
31911;BME280;18457;52.432;16.914;2023-03-03T11:36:19;100973.65;;;1.51;99.05
31911;BME280;18457;52.432;16.914;2023-03-03T11:38:57;100983.05;;;1.58;98.44
31911;BME280;18457;52.432;16.914;2023-03-03T11:41:35;100988.14;;;1.54;98.85
31911;BME280;18457;52.432;16.914;2023-03-03T11:44:17;100979.02;;;1.60;99.25
31911;BME280;18457;52.432;16.914;2023-03-03T11:46:54;100981.44;;;1.66;99.46
31911;BME280;18457;52.432;16.914;2023-03-03T11:49:34;100980.95;;;1.60;99.56
31911;BME280;18457;52.432;16.914;2023-03-03T11:52:18;100975.27;;;1.60;99.87
31911;BME280;18457;52.432;16.914;2023-03-03T11:54:55;100973.06;;;1.66;99.29
31911;BME280;18457;52.432;16.914;2023-03-03T11:57:34;100972.61;;;1.61;98.81
31911;BME280;18457;52.432;16.914;2023-03-03T12:00:28;100967.09;;;1.60;99.25
31911;BME280;18457;52.432;16.914;2023-03-03T12:03:31;100969.58;;;1.60;99.44
31911;BME280;18457;52.432;16.914;2023-03-03T12:06:15;100968.11;;;1.59;99.07
31911;BME280;18457;52.432;16.914;2023-03-03T12:09:05;100971.65;;;1.66;98.91
31911;BME280;18457;52.432;16.914;2023-03-03T12:11:47;100963.67;;;1.68;98.90
31911;BME280;18457;52.432;16.914;2023-03-03T12:14:38;100964.53;;;1.75;98.86
31911;BME280;18457;52.432;16.914;2023-03-03T12:17:25;100969.22;;;1.69;98.33
31911;BME280;18457;52.432;16.914;2023-03-03T12:20:04;100965.34;;;1.71;97.90
31911;BME280;18457;52.432;16.914;2023-03-03T12:22:43;100962.09;;;1.68;97.88
31911;BME280;18457;52.432;16.914;2023-03-03T12:25:38;100958.75;;;1.80;98.01
31911;BME280;18457;52.432;16.914;2023-03-03T12:28:16;100951.81;;;1.79;97.68
31911;BME280;18457;52.432;16.914;2023-03-03T12:31:08;100951.73;;;1.85;97.31
31911;BME280;18457;52.432;16.914;2023-03-03T12:33:52;100947.61;;;1.93;97.31
31911;BME280;18457;52.432;16.914;2023-03-03T12:39:43;100942.49;;;2.04;97.55
31911;BME280;18457;52.432;16.914;2023-03-03T12:42:23;100947.82;;;2.03;97.88
31911;BME280;18457;52.432;16.914;2023-03-03T12:45:09;100944.05;;;2.03;98.24
31911;BME280;18457;52.432;16.914;2023-03-03T12:47:48;100947.30;;;1.95;98.67
31911;BME280;18457;52.432;16.914;2023-03-03T12:50:29;100948.10;;;1.99;98.83
31911;BME280;18457;52.432;16.914;2023-03-03T12:53:16;100952.31;;;1.96;98.27
31911;BME280;18457;52.432;16.914;2023-03-03T12:55:54;100950.92;;;1.88;97.89
31911;BME280;18457;52.432;16.914;2023-03-03T12:58:37;100951.70;;;1.83;97.34
31911;BME280;18457;52.432;16.914;2023-03-03T13:01:27;100946.87;;;1.91;96.82
31911;BME280;18457;52.432;16.914;2023-03-03T13:04:09;100946.38;;;2.02;96.29
31911;BME280;18457;52.432;16.914;2023-03-03T13:06:46;100945.39;;;1.98;95.86
31911;BME280;18457;52.432;16.914;2023-03-03T13:09:30;100950.23;;;1.99;95.72
31911;BME280;18457;52.432;16.914;2023-03-03T13:12:27;100952.20;;;1.99;96.02
31911;BME280;18457;52.432;16.914;2023-03-03T13:15:08;100952.35;;;2.08;95.88
31911;BME280;18457;52.432;16.914;2023-03-03T13:17:54;100956.71;;;2.12;95.62
31911;BME280;18457;52.432;16.914;2023-03-03T13:20:37;100950.52;;;2.15;95.29
31911;BME280;18457;52.432;16.914;2023-03-03T13:23:20;100950.69;;;2.23;94.84
31911;BME280;18457;52.432;16.914;2023-03-03T13:26:02;100945.56;;;2.16;94.33
31911;BME280;18457;52.432;16.914;2023-03-03T13:28:41;100948.65;;;2.10;94.50
31911;BME280;18457;52.432;16.914;2023-03-03T13:31:20;100943.98;;;2.08;94.93
31911;BME280;18457;52.432;16.914;2023-03-03T13:33:54;100939.34;;;2.08;95.06
31911;BME280;18457;52.432;16.914;2023-03-03T13:36:33;100934.43;;;2.11;94.85
31911;BME280;18457;52.432;16.914;2023-03-03T13:39:17;100934.94;;;2.20;94.45